Time;durP1;ratioP1;P1;durP2;ratioP2;P2;SDS_P1;SDS_P2;PMS_P1;PMS_P2;Temp;Humidity;BMP_temperature;BMP_pressure;BME280_temperature;BME280_humidity;BME280_pressure;Samples;Min_cycle;Max_cycle;Signal;HPM_P1;HPM_P2
2021/12/22 00:01:27;;;;;;;25.10;16.92;;;-2.90;99.90;;;;;;4984362;28;20073;-72
2021/12/22 00:03:54;;;;;;;22.92;16.63;;;-2.90;99.90;;;;;;4986954;28;20046;-72
2021/12/22 00:06:22;;;;;;;26.13;17.48;;;-2.90;99.90;;;;;;4983189;28;20046;-72
2021/12/22 00:08:48;;;;;;;24.95;16.77;;;-2.90;99.90;;;;;;4984544;28;20125;-72
2021/12/22 00:11:15;;;;;;;27.30;18.15;;;-2.90;99.90;;;;;;4983650;28;20061;-72
2021/12/22 00:13:41;;;;;;;26.67;17.77;;;-2.90;99.90;;;;;;4982865;28;20034;-72
2021/12/22 00:16:07;;;;;;;25.73;18.50;;;-2.90;99.90;;;;;;4997628;28;20125;-72
2021/12/22 00:18:33;;;;;;;29.65;18.88;;;-2.90;99.90;;;;;;4981480;28;20065;-72
2021/12/22 00:20:59;;;;;;;25.75;18.38;;;-2.90;99.90;;;;;;4985268;28;20038;-72
2021/12/22 00:23:25;;;;;;;29.30;19.15;;;-2.90;99.90;;;;;;4984711;28;20038;-72
2021/12/22 00:25:51;;;;;;;29.55;19.23;;;-2.90;99.90;;;;;;4985012;28;20176;-72
2021/12/22 00:28:17;;;;;;;30.65;19.60;;;-2.90;99.90;;;;;;4983332;28;20038;-72
2021/12/22 00:30:43;;;;;;;31.08;19.45;;;-2.90;99.90;;;;;;4983891;28;20043;-72
2021/12/22 00:33:11;;;;;;;30.20;19.02;;;-2.90;99.90;;;;;;4985885;28;20034;-72
2021/12/22 00:35:45;;;;;;;27.15;17.90;;;-2.90;99.90;;;;;;4986133;28;20049;-72
2021/12/22 00:38:21;;;;;;;31.63;19.27;;;-2.90;99.90;;;;;;4985105;28;20067;-72
2021/12/22 00:40:48;;;;;;;30.45;18.98;;;-2.80;99.90;;;;;;4983811;28;20049;-72
2021/12/22 00:43:15;;;;;;;25.33;18.00;;;-2.90;99.90;;;;;;4985768;28;20039;-72
2021/12/22 00:45:41;;;;;;;32.10;19.85;;;-2.90;99.90;;;;;;4983493;28;20050;-72
2021/12/22 00:48:10;;;;;;;31.52;19.88;;;-2.90;99.90;;;;;;4999818;28;20038;-72
2021/12/22 00:50:38;;;;;;;31.60;19.30;;;-2.90;99.90;;;;;;4999823;28;20090;-72
2021/12/22 00:53:05;;;;;;;29.33;19.02;;;-2.90;99.90;;;;;;4969885;28;20046;-72
2021/12/22 00:55:31;;;;;;;32.78;18.65;;;-2.90;99.90;;;;;;4984653;28;20038;-72
2021/12/22 00:57:57;;;;;;;26.98;18.27;;;-2.90;99.90;;;;;;4983708;28;20054;-72
2021/12/22 01:00:25;;;;;;;27.75;18.50;;;-2.90;99.90;;;;;;4985566;28;20042;-72
2021/12/22 01:02:52;;;;;;;30.17;18.70;;;-2.90;99.90;;;;;;4985231;28;20064;-72
2021/12/22 01:05:18;;;;;;;29.25;18.63;;;-2.90;99.90;;;;;;4984346;28;20101;-72
2021/12/22 01:07:46;;;;;;;31.10;18.08;;;-2.90;99.90;;;;;;4985995;28;20039;-72
2021/12/22 01:10:12;;;;;;;28.40;18.08;;;-2.90;99.90;;;;;;4984435;28;20030;-72
2021/12/22 01:12:38;;;;;;;32.10;18.52;;;-2.90;99.90;;;;;;4983818;28;20042;-72
2021/12/22 01:15:06;;;;;;;30.98;18.23;;;-2.90;99.90;;;;;;4982428;28;20448;-72
2021/12/22 01:17:38;;;;;;;24.50;17.30;;;-2.90;99.90;;;;;;4999175;28;20056;-72
2021/12/22 01:20:25;;;;;;;28.35;16.75;;;-3.00;99.90;;;;;;4985013;28;20035;-72
2021/12/22 01:23:01;;;;;;;25.65;16.20;;;-3.00;99.90;;;;;;4983857;28;20030;-72
2021/12/22 01:25:26;;;;;;;26.33;17.15;;;-3.00;99.90;;;;;;4982065;28;20141;-72
2021/12/22 01:27:52;;;;;;;26.30;17.33;;;-3.00;99.90;;;;;;4983448;28;20133;-71
2021/12/22 01:30:24;;;;;;;23.83;16.55;;;-3.00;99.90;;;;;;4982663;28;20038;-72
2021/12/22 01:32:54;;;;;;;26.67;16.50;;;-3.00;99.90;;;;;;4984715;28;20173;-72
2021/12/22 01:35:23;;;;;;;26.05;16.58;;;-3.10;99.90;;;;;;4968782;28;20116;-71
2021/12/22 01:37:49;;;;;;;28.50;16.05;;;-3.10;99.90;;;;;;4984775;28;20132;-72
2021/12/22 01:40:16;;;;;;;21.90;15.18;;;-3.10;99.90;;;;;;4968021;28;20196;-72
2021/12/22 01:42:42;;;;;;;22.08;16.02;;;-3.20;99.90;;;;;;4983560;28;20039;-72
2021/12/22 01:50:40;;;;;;;24.70;15.65;;;-3.20;99.90;;;;;;5000498;28;20042;-72
2021/12/22 01:53:21;;;;;;;22.90;14.60;;;-3.20;99.90;;;;;;4982749;28;20038;-72
2021/12/22 01:56:04;;;;;;;26.77;15.05;;;-3.30;99.90;;;;;;4981473;28;20057;-72
2021/12/22 01:58:35;;;;;;;25.13;15.15;;;-3.30;99.90;;;;;;4983897;28;20042;-72
2021/12/22 02:01:03;;;;;;;22.60;15.20;;;-3.40;99.90;;;;;;4988519;28;20129;-72
2021/12/22 02:03:29;;;;;;;23.30;15.98;;;-3.40;99.90;;;;;;4986085;28;20042;-72
2021/12/22 02:05:54;;;;;;;25.08;16.20;;;-3.40;99.90;;;;;;5002411;28;20053;-72
2021/12/22 02:08:20;;;;;;;21.77;15.75;;;-3.40;99.90;;;;;;4987786;28;20048;-71
2021/12/22 02:10:47;;;;;;;23.67;15.35;;;-3.30;99.90;;;;;;4986827;28;20148;-72
2021/12/22 02:13:23;;;;;;;20.45;14.88;;;-3.30;99.90;;;;;;4987199;28;20655;-72
2021/12/22 02:15:49;;;;;;;21.50;15.05;;;-3.40;99.90;;;;;;4987999;28;20488;-72
2021/12/22 02:18:21;;;;;;;23.10;15.05;;;-3.40;99.90;;;;;;4985666;28;20050;-72
2021/12/22 02:20:49;;;;;;;22.55;15.52;;;-3.40;99.90;;;;;;4971321;28;20046;-71
2021/12/22 02:23:16;;;;;;;24.10;14.20;;;-3.40;99.90;;;;;;4985737;28;20686;-72
2021/12/22 02:25:52;;;;;;;22.95;14.80;;;-3.40;99.90;;;;;;4987312;28;20400;-72
2021/12/22 02:28:26;;;;;;;22.90;15.45;;;-3.40;99.90;;;;;;4987852;28;20568;-72
2021/12/22 02:30:52;;;;;;;22.00;14.85;;;-3.40;99.90;;;;;;4983046;28;20499;-72
2021/12/22 02:33:24;;;;;;;23.92;15.60;;;-3.40;99.90;;;;;;4986496;28;20061;-72
2021/12/22 02:38:42;;;;;;;22.17;14.30;;;-3.40;99.90;;;;;;4987720;28;20081;-72
2021/12/22 02:41:11;;;;;;;23.15;14.38;;;-3.50;99.90;;;;;;4985942;28;20416;-72
2021/12/22 02:43:45;;;;;;;23.95;14.85;;;-3.40;99.90;;;;;;4987392;28;20050;-72
2021/12/22 02:46:11;;;;;;;22.38;14.55;;;-3.50;99.90;;;;;;4986154;28;20045;-72
2021/12/22 02:48:37;;;;;;;21.65;14.27;;;-3.50;99.90;;;;;;4985889;28;20535;-72
2021/12/22 02:51:03;;;;;;;20.48;13.80;;;-3.50;99.90;;;;;;4987127;28;20570;-72
2021/12/22 02:56:27;;;;;;;25.05;15.45;;;-3.50;99.90;;;;;;4984379;28;20449;-73
2021/12/22 03:04:16;;;;;;;24.90;15.00;;;-3.50;99.90;;;;;;4985639;28;20045;-72
2021/12/22 03:07:16;;;;;;;21.58;14.07;;;-3.50;99.90;;;;;;4987134;28;20440;-72
2021/12/22 03:09:35;;;;;;;23.35;14.90;;;-3.50;99.90;;;;;;4981973;28;20457;-72
2021/12/22 03:12:04;;;;;;;24.30;15.15;;;-3.50;99.90;;;;;;4987213;28;20358;-72
2021/12/22 03:14:30;;;;;;;23.95;14.40;;;-3.50;99.90;;;;;;4980027;28;20408;-72
2021/12/22 03:16:57;;;;;;;22.40;14.90;;;-3.60;99.90;;;;;;4985923;28;20047;-72
2021/12/22 03:19:29;;;;;;;25.48;14.77;;;-3.60;99.90;;;;;;4982627;28;20058;-72
2021/12/22 03:22:02;;;;;;;23.20;14.98;;;-3.50;99.90;;;;;;5001518;28;20548;-72
2021/12/22 03:24:29;;;;;;;22.70;15.27;;;-3.60;99.90;;;;;;4983436;28;20034;-72
2021/12/22 03:26:59;;;;;;;22.10;14.23;;;-3.60;99.90;;;;;;4983368;28;20481;-72
2021/12/22 03:29:25;;;;;;;22.02;14.43;;;-3.60;99.90;;;;;;4982319;28;20042;-72
2021/12/22 03:31:51;;;;;;;21.88;14.20;;;-3.70;99.90;;;;;;4984208;28;20070;-72
2021/12/22 03:34:17;;;;;;;21.48;14.95;;;-3.70;99.90;;;;;;4987157;28;20085;-72
2021/12/22 03:36:43;;;;;;;25.00;15.23;;;-3.70;99.90;;;;;;4986330;28;20053;-72
2021/12/22 03:39:10;;;;;;;27.67;16.05;;;-3.80;99.90;;;;;;4985597;28;20042;-72
2021/12/22 03:41:36;;;;;;;25.02;16.25;;;-3.80;99.90;;;;;;4985646;28;20420;-72
2021/12/22 03:44:06;;;;;;;24.00;15.38;;;-3.90;99.90;;;;;;4982299;28;20047;-72
2021/12/22 03:46:32;;;;;;;24.15;16.05;;;-3.80;99.90;;;;;;4987405;28;20393;-72
2021/12/22 03:48:58;;;;;;;25.83;16.75;;;-3.90;99.90;;;;;;4985863;28;20042;-72
2021/12/22 03:51:27;;;;;;;25.58;15.75;;;-3.90;99.90;;;;;;4986577;28;20536;-72
2021/12/22 03:53:53;;;;;;;30.67;16.92;;;-3.90;99.90;;;;;;4984527;28;20505;-72
2021/12/22 03:56:20;;;;;;;28.23;16.10;;;-3.90;99.90;;;;;;4985583;28;20681;-72
2021/12/22 03:58:46;;;;;;;27.40;16.15;;;-3.90;99.90;;;;;;4986356;28;20512;-72
2021/12/22 04:01:12;;;;;;;23.33;15.40;;;-3.90;99.90;;;;;;4986041;28;20100;-72
2021/12/22 04:03:40;;;;;;;21.95;15.15;;;-3.90;99.90;;;;;;4986191;28;20077;-72
2021/12/22 04:06:06;;;;;;;24.60;15.40;;;-3.90;99.90;;;;;;4982385;28;20507;-72
2021/12/22 04:08:32;;;;;;;25.15;15.60;;;-3.90;99.90;;;;;;4985395;28;20129;-72
2021/12/22 04:10:57;;;;;;;25.83;15.48;;;-3.90;99.90;;;;;;4984450;28;20046;-72
2021/12/22 04:13:23;;;;;;;28.98;16.42;;;-3.90;99.90;;;;;;5002695;28;20035;-72
2021/12/22 04:15:49;;;;;;;24.77;15.63;;;-4.00;99.90;;;;;;4985400;28;20512;-72
2021/12/22 04:18:17;;;;;;;23.17;15.57;;;-3.90;99.90;;;;;;4984798;28;20104;-72
2021/12/22 04:20:43;;;;;;;26.08;15.55;;;-3.90;99.90;;;;;;4984114;28;20560;-72
2021/12/22 04:23:09;;;;;;;25.92;15.55;;;-3.90;99.90;;;;;;4984715;28;20174;-72
2021/12/22 04:25:36;;;;;;;24.50;15.63;;;-3.90;99.90;;;;;;4985253;28;20188;-72
2021/12/22 04:28:08;;;;;;;25.73;15.43;;;-3.90;99.90;;;;;;4985411;28;20512;-72
2021/12/22 04:30:48;;;;;;;26.40;15.40;;;-3.90;99.90;;;;;;4986228;28;20035;-72
2021/12/22 04:33:15;;;;;;;29.50;15.25;;;-3.90;99.90;;;;;;4971401;28;20046;-72
2021/12/22 04:35:41;;;;;;;22.33;14.63;;;-3.90;99.90;;;;;;4969793;28;20053;-72
2021/12/22 04:38:07;;;;;;;26.38;14.77;;;-3.90;99.90;;;;;;4985564;28;20046;-72
2021/12/22 04:40:32;;;;;;;24.15;14.45;;;-3.90;99.90;;;;;;4986740;28;20093;-72
2021/12/22 06:19:59;;;;;;;30.10;17.25;;;-4.20;99.90;;;;;;5073636;27;20374;-71
2021/12/22 06:22:27;;;;;;;28.80;17.40;;;-4.20;99.90;;;;;;5057833;28;20054;-71
2021/12/22 06:24:52;;;;;;;29.63;16.83;;;-4.20;99.90;;;;;;5053230;28;20098;-72
2021/12/22 06:27:18;;;;;;;26.08;16.52;;;-4.20;99.90;;;;;;5052336;28;20036;-71
2021/12/22 06:29:44;;;;;;;26.98;16.75;;;-4.20;99.90;;;;;;5058128;28;20068;-71
2021/12/22 06:32:09;;;;;;;28.50;16.95;;;-4.20;99.90;;;;;;5052983;28;20044;-72
2021/12/22 06:34:35;;;;;;;26.17;15.48;;;-4.20;99.90;;;;;;5039896;28;20049;-72
2021/12/22 06:37:01;;;;;;;25.45;16.25;;;-4.20;99.90;;;;;;5051033;28;20043;-71
2021/12/22 06:39:27;;;;;;;23.80;15.63;;;-4.20;99.90;;;;;;5040896;28;20118;-71
2021/12/22 06:41:52;;;;;;;27.30;16.92;;;-4.20;99.90;;;;;;5057426;28;20086;-72
2021/12/22 06:44:19;;;;;;;24.77;16.35;;;-4.20;99.90;;;;;;5057643;28;20787;-72
2021/12/22 06:46:44;;;;;;;28.30;15.68;;;-4.20;99.90;;;;;;5056591;28;20036;-72
2021/12/22 06:49:11;;;;;;;23.90;15.40;;;-4.20;99.90;;;;;;5039381;28;20094;-72
2021/12/22 06:51:37;;;;;;;25.13;15.95;;;-4.20;99.90;;;;;;5050297;28;20034;-72
2021/12/22 06:54:03;;;;;;;25.50;15.57;;;-4.20;99.90;;;;;;5058037;28;20139;-72
2021/12/22 06:56:29;;;;;;;28.92;16.48;;;-4.10;99.90;;;;;;5053215;28;20535;-72
2021/12/22 06:58:57;;;;;;;27.17;16.55;;;-4.10;99.90;;;;;;5058476;28;20045;-72
2021/12/22 07:01:23;;;;;;;26.35;15.80;;;-4.20;99.90;;;;;;5036246;28;20060;-72
2021/12/22 07:03:50;;;;;;;29.15;17.05;;;-4.10;99.90;;;;;;5033809;28;20042;-72
2021/12/22 07:06:16;;;;;;;28.48;16.98;;;-4.10;99.90;;;;;;4945141;28;20050;-71
2021/12/22 07:08:42;;;;;;;25.35;16.02;;;-4.10;99.90;;;;;;5021925;28;20200;-71
2021/12/22 07:11:09;;;;;;;27.23;16.08;;;-4.10;99.90;;;;;;5002906;28;20525;-71
2021/12/22 07:13:35;;;;;;;25.60;16.20;;;-4.20;99.90;;;;;;5008397;28;20038;-72
2021/12/22 07:16:01;;;;;;;25.75;16.08;;;-4.20;99.90;;;;;;5012600;28;20058;-71
2021/12/22 07:18:27;;;;;;;24.35;15.77;;;-4.20;99.90;;;;;;5002170;28;20120;-72
2021/12/22 07:20:53;;;;;;;23.15;15.95;;;-4.20;99.90;;;;;;4991103;28;20042;-72
2021/12/22 07:23:19;;;;;;;23.42;15.30;;;-4.20;99.90;;;;;;4985761;28;20042;-72
2021/12/22 07:25:45;;;;;;;22.50;14.57;;;-4.20;99.90;;;;;;4976193;28;20042;-72
2021/12/22 07:28:10;;;;;;;26.25;15.85;;;-4.20;99.90;;;;;;4998175;28;20072;-72
2021/12/22 07:30:37;;;;;;;23.02;14.52;;;-4.20;99.90;;;;;;4994492;28;20049;-72
2021/12/22 07:33:04;;;;;;;24.63;14.90;;;-4.30;99.90;;;;;;4991666;28;20049;-71
2021/12/22 07:35:45;;;;;;;23.30;14.80;;;-4.30;99.90;;;;;;4985418;28;20039;-72
2021/12/22 07:38:39;;;;;;;23.00;14.90;;;-4.30;99.90;;;;;;4990994;28;20043;-72
2021/12/22 07:41:06;;;;;;;23.50;14.85;;;-4.30;99.90;;;;;;4993100;28;20059;-73
2021/12/22 07:43:32;;;;;;;22.55;14.82;;;-4.30;99.90;;;;;;4974127;28;20070;-72
2021/12/22 07:45:58;;;;;;;25.77;14.98;;;-4.30;99.90;;;;;;4988920;28;20053;-72
2021/12/22 07:48:24;;;;;;;22.42;13.88;;;-4.30;99.90;;;;;;4978220;28;20112;-72
2021/12/22 07:50:49;;;;;;;25.10;14.00;;;-4.30;99.90;;;;;;4994221;28;20037;-73
2021/12/22 07:53:15;;;;;;;29.00;15.20;;;-4.30;99.90;;;;;;4987245;28;20035;-73
2021/12/22 07:55:41;;;;;;;23.23;15.20;;;-4.30;99.90;;;;;;4994087;28;20058;-73
2021/12/22 07:58:07;;;;;;;24.02;15.07;;;-4.30;99.90;;;;;;4989517;28;20037;-73
2021/12/22 08:00:34;;;;;;;26.25;15.90;;;-4.20;99.90;;;;;;4994945;28;20489;-73
2021/12/22 08:03:00;;;;;;;24.27;15.13;;;-4.20;99.90;;;;;;4986249;28;20034;-73
2021/12/22 08:05:26;;;;;;;22.23;15.10;;;-4.20;99.90;;;;;;4976722;28;20038;-72
2021/12/22 08:07:51;;;;;;;25.80;15.43;;;-4.20;99.90;;;;;;4968651;28;20050;-72
2021/12/22 08:10:17;;;;;;;28.60;15.48;;;-4.20;99.90;;;;;;4980621;28;20042;-72
2021/12/22 08:12:43;;;;;;;29.23;16.15;;;-4.10;99.90;;;;;;4991735;28;20078;-72
2021/12/22 08:15:09;;;;;;;25.10;16.00;;;-4.10;99.90;;;;;;4992232;28;20038;-72
2021/12/22 08:17:35;;;;;;;27.40;16.10;;;-4.10;99.90;;;;;;4989680;28;20038;-71
2021/12/22 08:20:03;;;;;;;26.33;15.95;;;-4.10;99.90;;;;;;4973742;28;20097;-72
2021/12/22 08:22:29;;;;;;;25.70;15.70;;;-4.00;99.90;;;;;;4990063;28;20085;-72
2021/12/22 08:24:55;;;;;;;27.67;16.38;;;-4.00;99.90;;;;;;4985756;28;20525;-72
2021/12/22 08:27:22;;;;;;;25.75;16.02;;;-4.00;99.90;;;;;;4985943;28;20134;-72
2021/12/22 08:29:49;;;;;;;24.02;15.13;;;-3.90;99.90;;;;;;4989890;28;20093;-71
2021/12/22 08:32:15;;;;;;;27.55;16.10;;;-3.90;99.90;;;;;;4988794;28;20500;-73
2021/12/22 08:34:42;;;;;;;28.08;16.23;;;-3.80;99.90;;;;;;4976345;28;20046;-71
2021/12/22 08:39:56;;;;;;;27.67;16.25;;;-3.70;99.90;;;;;;4993276;28;20419;-72
2021/12/22 08:42:22;;;;;;;26.65;16.02;;;-3.70;99.90;;;;;;4991346;28;20060;-73
2021/12/22 08:44:49;;;;;;;27.33;16.63;;;-3.70;99.90;;;;;;4973019;28;20037;-72
2021/12/22 08:47:16;;;;;;;28.77;16.85;;;-3.60;99.90;;;;;;4990490;28;20121;-72
2021/12/22 08:49:43;;;;;;;24.70;15.70;;;-3.60;99.90;;;;;;4990094;28;20121;-72
2021/12/22 08:52:09;;;;;;;32.55;16.88;;;-3.60;99.90;;;;;;4991890;28;20045;-72
2021/12/22 08:54:35;;;;;;;29.38;16.88;;;-3.50;99.90;;;;;;4986470;28;20045;-73
2021/12/22 08:57:01;;;;;;;25.40;15.95;;;-3.50;99.90;;;;;;4986634;28;20042;-73
2021/12/22 08:59:27;;;;;;;29.13;16.98;;;-3.40;99.90;;;;;;4970132;28;20054;-73
2021/12/22 09:01:53;;;;;;;30.08;17.80;;;-3.40;99.90;;;;;;4986965;28;20363;-72
2021/12/22 09:04:20;;;;;;;31.33;17.77;;;-3.30;99.90;;;;;;4986936;28;20558;-72
2021/12/22 09:06:47;;;;;;;30.33;17.90;;;-3.30;99.90;;;;;;4974510;28;20426;-72
2021/12/22 09:09:13;;;;;;;29.75;18.38;;;-3.20;99.90;;;;;;5009822;28;20558;-72
2021/12/22 09:11:40;;;;;;;32.80;17.98;;;-3.20;99.90;;;;;;4995583;28;20042;-72
2021/12/22 09:14:07;;;;;;;32.65;18.90;;;-3.10;99.90;;;;;;4992187;28;20037;-72
2021/12/22 09:16:34;;;;;;;32.13;17.73;;;-3.10;99.90;;;;;;4986793;28;20199;-72
2021/12/22 09:19:00;;;;;;;38.13;20.05;;;-3.00;99.90;;;;;;4988910;28;20038;-72
2021/12/22 09:21:26;;;;;;;32.38;18.70;;;-3.00;99.90;;;;;;4974859;28;20082;-72
2021/12/22 09:23:52;;;;;;;29.95;18.02;;;-2.90;99.90;;;;;;4989334;28;20074;-72
2021/12/22 09:26:18;;;;;;;28.63;18.40;;;-2.90;99.90;;;;;;4990621;28;20042;-72
2021/12/22 09:28:44;;;;;;;33.03;18.42;;;-2.80;99.90;;;;;;4987078;28;20069;-73
2021/12/22 09:31:12;;;;;;;33.75;20.20;;;-2.80;99.90;;;;;;5004506;28;20121;-73
2021/12/22 09:33:38;;;;;;;29.40;17.92;;;-2.70;99.90;;;;;;5008181;28;20494;-72
2021/12/22 09:36:06;;;;;;;30.10;18.73;;;-2.60;99.90;;;;;;4989430;28;20077;-72
2021/12/22 09:38:32;;;;;;;30.73;19.60;;;-2.60;99.90;;;;;;4973665;28;20054;-73
2021/12/22 09:41:02;;;;;;;32.20;18.65;;;-2.60;99.90;;;;;;4971107;28;20404;-72
2021/12/22 09:43:28;;;;;;;34.00;19.23;;;-2.50;99.90;;;;;;4990855;28;20046;-73
2021/12/22 09:46:00;;;;;;;32.05;19.65;;;-2.40;99.90;;;;;;4984834;28;20042;-73
2021/12/22 09:48:48;;;;;;;29.15;18.25;;;-2.30;99.90;;;;;;4986053;28;20061;-72
2021/12/22 09:53:50;;;;;;;29.80;18.75;;;-2.10;99.90;;;;;;4985514;28;20038;-73
2021/12/22 09:56:20;;;;;;;31.08;17.48;;;-2.00;99.90;;;;;;4977410;28;20559;-73
2021/12/22 09:58:47;;;;;;;28.20;17.13;;;-2.00;99.90;;;;;;4983676;28;20042;-73
2021/12/22 10:01:13;;;;;;;28.27;17.25;;;-1.90;99.90;;;;;;4987640;28;20371;-73
2021/12/22 10:03:39;;;;;;;29.85;17.13;;;-1.90;99.90;;;;;;4986765;28;20751;-73
2021/12/22 10:06:06;;;;;;;31.42;17.73;;;-1.90;99.90;;;;;;4985463;28;20042;-73
2021/12/22 10:08:32;;;;;;;27.83;17.52;;;-1.80;99.90;;;;;;4989721;28;20046;-73
2021/12/22 10:11:01;;;;;;;31.17;18.13;;;-1.70;99.90;;;;;;4987368;28;20034;-73
2021/12/22 10:13:29;;;;;;;28.75;17.40;;;-1.70;99.90;;;;;;4984568;28;20577;-74
2021/12/22 10:15:55;;;;;;;30.98;18.60;;;-1.60;99.90;;;;;;4968671;28;20047;-73
2021/12/22 10:18:24;;;;;;;25.73;16.95;;;-1.60;99.90;;;;;;4988244;28;20050;-74
2021/12/22 10:20:51;;;;;;;26.48;16.63;;;-1.50;99.90;;;;;;4985587;28;20061;-74
2021/12/22 10:23:18;;;;;;;24.88;16.88;;;-1.40;99.90;;;;;;4995543;28;20037;-74
2021/12/22 10:25:51;;;;;;;28.33;17.35;;;-1.30;99.90;;;;;;4985708;28;20047;-74
2021/12/22 10:28:19;;;;;;;30.42;16.88;;;-1.30;99.90;;;;;;4991594;28;20511;-74
2021/12/22 10:30:47;;;;;;;27.60;17.15;;;-1.20;99.90;;;;;;4991449;28;20026;-74
2021/12/22 10:33:21;;;;;;;30.02;17.35;;;-1.10;99.90;;;;;;4986859;28;20536;-75
2021/12/22 10:35:56;;;;;;;23.67;17.23;;;-1.10;99.90;;;;;;4962557;28;20113;-74
2021/12/22 10:38:27;;;;;;;25.33;16.38;;;-1.00;99.90;;;;;;4991383;28;20242;-74
2021/12/22 10:40:56;;;;;;;25.50;15.98;;;-1.00;99.90;;;;;;4983791;28;20128;-74
2021/12/22 10:43:28;;;;;;;24.92;16.02;;;-0.90;99.90;;;;;;4995106;28;20121;-75
2021/12/22 10:46:00;;;;;;;24.13;15.75;;;-0.90;99.90;;;;;;4984922;28;20494;-75
2021/12/22 10:51:25;;;;;;;26.52;16.10;;;-0.80;99.90;;;;;;4982499;28;20502;-74
2021/12/22 10:53:53;;;;;;;28.48;16.98;;;-0.80;99.90;;;;;;4974960;28;20382;-75
2021/12/22 10:56:39;;;;;;;24.98;15.93;;;-0.80;99.90;;;;;;4994251;28;20160;-74
2021/12/22 10:59:13;;;;;;;23.90;15.23;;;-0.70;99.90;;;;;;4994583;28;20382;-74
2021/12/22 11:01:59;;;;;;;25.25;15.82;;;-0.70;99.90;;;;;;4977972;28;20521;-74
2021/12/22 11:04:29;;;;;;;24.67;16.23;;;-0.70;99.90;;;;;;4972665;28;20051;-74
2021/12/22 11:07:04;;;;;;;24.30;15.80;;;-0.60;99.90;;;;;;4974834;28;20422;-74
2021/12/22 11:09:34;;;;;;;30.35;17.48;;;-0.60;99.90;;;;;;4974851;28;20062;-74
2021/12/22 11:12:01;;;;;;;28.70;16.63;;;-0.50;99.90;;;;;;4984584;28;20078;-74
2021/12/22 11:14:30;;;;;;;27.02;16.05;;;-0.50;99.90;;;;;;4988524;28;20038;-74
2021/12/22 11:17:06;;;;;;;23.90;16.33;;;-0.40;99.90;;;;;;4999014;28;20038;-75
2021/12/22 11:19:47;;;;;;;23.75;15.75;;;-0.30;99.90;;;;;;4990310;28;20177;-74
2021/12/22 11:22:14;;;;;;;26.88;15.38;;;-0.30;99.90;;;;;;4990992;28;20046;-74
2021/12/22 11:24:48;;;;;;;27.70;16.67;;;-0.30;99.90;;;;;;4975093;28;20376;-74
2021/12/22 11:27:26;;;;;;;24.02;15.85;;;-0.20;99.90;;;;;;4987352;28;21931;-75
2021/12/22 11:29:55;;;;;;;20.80;14.82;;;-0.20;99.90;;;;;;4992866;28;20591;-74
2021/12/22 11:32:23;;;;;;;23.33;15.52;;;-0.20;99.90;;;;;;4976432;28;20702;-74
2021/12/22 11:34:51;;;;;;;26.30;16.45;;;-0.20;99.90;;;;;;4992918;28;20407;-73
2021/12/22 11:37:18;;;;;;;26.17;16.10;;;-0.10;99.90;;;;;;4976985;28;20398;-74
2021/12/22 11:39:44;;;;;;;24.08;15.52;;;-0.10;99.90;;;;;;4997822;28;20453;-74
2021/12/22 11:42:13;;;;;;;21.98;15.13;;;-0.10;99.90;;;;;;4976665;28;20402;-74
2021/12/22 11:44:40;;;;;;;25.00;15.23;;;0.00;99.90;;;;;;4997778;28;20548;-74
2021/12/22 11:47:11;;;;;;;21.88;14.82;;;0.00;99.90;;;;;;4976336;28;20069;-74
2021/12/22 11:49:51;;;;;;;21.63;15.30;;;0.10;99.90;;;;;;4992664;28;20069;-73
2021/12/22 11:52:32;;;;;;;24.08;14.65;;;0.10;99.90;;;;;;4991686;28;20034;-73
2021/12/22 11:55:15;;;;;;;24.65;15.15;;;0.10;99.90;;;;;;4988623;28;20363;-74
2021/12/22 11:57:42;;;;;;;23.58;14.77;;;0.20;99.90;;;;;;4988197;28;20509;-74
2021/12/22 12:00:32;;;;;;;22.52;14.75;;;0.30;99.90;;;;;;4966679;28;20045;-74
2021/12/22 12:03:18;;;;;;;26.02;14.80;;;0.30;99.90;;;;;;4983775;28;20038;-74
2021/12/22 12:06:03;;;;;;;23.60;14.98;;;0.40;99.90;;;;;;4970008;28;20446;-74
2021/12/22 12:08:35;;;;;;;24.77;15.50;;;0.50;99.90;;;;;;4988915;28;20053;-74
2021/12/22 12:11:01;;;;;;;22.48;14.77;;;0.50;99.90;;;;;;4989908;28;20044;-74
2021/12/22 12:13:36;;;;;;;23.42;14.43;;;0.60;99.90;;;;;;4973355;28;20582;-74
2021/12/22 12:21:59;;;;;;;22.85;14.45;;;0.90;99.90;;;;;;4981354;28;20053;-74
2021/12/22 12:24:35;;;;;;;22.90;14.87;;;1.00;99.90;;;;;;4975852;28;20121;-73
2021/12/22 12:27:40;;;;;;;24.08;14.13;;;1.10;99.90;;;;;;4988467;28;20054;-73
2021/12/22 12:30:13;;;;;;;19.02;12.70;;;1.20;99.90;;;;;;4987165;28;20053;-73
2021/12/22 12:32:39;;;;;;;20.45;13.68;;;1.30;99.90;;;;;;5004309;28;20047;-73
2021/12/22 12:35:20;;;;;;;20.83;14.40;;;1.40;99.90;;;;;;4978080;28;20048;-74
2021/12/22 12:38:05;;;;;;;23.92;13.23;;;1.50;99.90;;;;;;4981047;28;21095;-74
2021/12/22 12:41:05;;;;;;;18.88;13.00;;;1.60;99.90;;;;;;4980973;28;21505;-74
2021/12/22 12:43:40;;;;;;;20.13;13.50;;;1.60;99.90;;;;;;4989536;28;20050;-73
2021/12/22 12:46:21;;;;;;;19.63;13.43;;;1.50;99.90;;;;;;4987786;28;20038;-73
2021/12/22 12:48:55;;;;;;;19.15;13.20;;;1.50;99.90;;;;;;4965046;28;20050;-72
2021/12/22 12:51:34;;;;;;;22.65;13.93;;;1.50;99.90;;;;;;4989011;28;20042;-73
2021/12/22 12:54:18;;;;;;;16.73;12.75;;;1.40;99.90;;;;;;4971076;28;20530;-73
2021/12/22 12:56:47;;;;;;;21.40;13.38;;;1.40;99.90;;;;;;4992199;28;20486;-72
2021/12/22 12:59:18;;;;;;;20.73;13.80;;;1.40;99.90;;;;;;4988697;28;20585;-73
2021/12/22 13:01:47;;;;;;;20.00;13.15;;;1.50;99.90;;;;;;5002364;28;20034;-72
2021/12/22 13:04:41;;;;;;;20.20;14.23;;;1.50;99.90;;;;;;4977045;28;21671;-72
2021/12/22 13:07:14;;;;;;;21.33;14.25;;;1.60;99.90;;;;;;4987881;28;20034;-73
2021/12/22 13:09:47;;;;;;;20.77;14.30;;;1.70;99.90;;;;;;4966423;28;20042;-73
2021/12/22 13:17:48;;;;;;;20.45;13.57;;;1.90;99.90;;;;;;4986877;28;20136;-73
2021/12/22 13:20:18;;;;;;;20.00;14.27;;;1.90;99.90;;;;;;4987580;28;20045;-73
2021/12/22 13:22:52;;;;;;;19.80;13.60;;;2.00;99.90;;;;;;4958029;28;20034;-73
2021/12/22 13:25:27;;;;;;;18.90;12.98;;;2.00;99.90;;;;;;4990338;28;20513;-73
2021/12/22 13:27:58;;;;;;;23.88;13.50;;;2.00;99.90;;;;;;4987731;28;20046;-72
2021/12/22 13:30:33;;;;;;;19.65;13.55;;;2.00;99.90;;;;;;4988621;28;20038;-73
2021/12/22 13:33:08;;;;;;;20.17;12.55;;;2.20;99.90;;;;;;4989354;28;20045;-73
2021/12/22 13:35:45;;;;;;;20.00;12.27;;;2.40;99.90;;;;;;4989766;28;20074;-72
2021/12/22 13:38:40;;;;;;;19.45;12.80;;;2.80;99.90;;;;;;4976587;28;20042;-72
2021/12/22 13:41:18;;;;;;;20.40;12.43;;;3.00;99.90;;;;;;4984842;28;20395;-72
2021/12/22 13:43:52;;;;;;;18.75;11.23;;;3.10;99.90;;;;;;4992752;28;20048;-73
2021/12/22 13:46:26;;;;;;;18.40;12.82;;;2.90;99.90;;;;;;4975607;28;20038;-73
2021/12/22 13:48:57;;;;;;;18.38;13.07;;;2.60;99.90;;;;;;4989703;28;20054;-73
2021/12/22 13:51:27;;;;;;;21.40;13.40;;;2.30;99.90;;;;;;4989241;28;20046;-73
2021/12/22 13:53:54;;;;;;;20.70;14.15;;;2.10;99.90;;;;;;5005736;28;20045;-73
2021/12/22 13:56:21;;;;;;;21.23;13.50;;;1.90;99.90;;;;;;4985857;28;20113;-72
2021/12/22 13:58:51;;;;;;;22.77;14.18;;;1.80;99.90;;;;;;4987788;28;20128;-73
2021/12/22 14:01:34;;;;;;;21.13;13.80;;;1.60;99.90;;;;;;4986183;28;20251;-73
2021/12/22 14:04:00;;;;;;;21.65;14.75;;;1.50;99.90;;;;;;4989632;28;20561;-72
2021/12/22 14:06:38;;;;;;;23.92;14.75;;;1.40;99.90;;;;;;4984512;28;20046;-72
2021/12/22 14:09:07;;;;;;;24.40;14.43;;;1.30;99.90;;;;;;4986654;28;20533;-72
2021/12/22 14:11:35;;;;;;;23.08;14.63;;;1.30;99.90;;;;;;4993845;28;20625;-72
2021/12/22 14:14:23;;;;;;;22.88;14.10;;;1.20;99.90;;;;;;4994133;28;20405;-72
2021/12/22 14:16:52;;;;;;;25.95;14.48;;;1.20;99.90;;;;;;4976279;28;20038;-72
2021/12/22 14:19:19;;;;;;;24.45;14.50;;;1.10;99.90;;;;;;4992217;28;20139;-73
2021/12/22 14:21:47;;;;;;;19.70;14.35;;;1.00;99.90;;;;;;4974504;28;20394;-72
2021/12/22 14:24:19;;;;;;;21.95;14.65;;;1.00;99.90;;;;;;4990663;28;20042;-72
2021/12/22 14:26:49;;;;;;;22.53;15.07;;;1.00;99.90;;;;;;4987514;28;20042;-72
2021/12/22 14:29:15;;;;;;;21.20;14.55;;;0.90;99.90;;;;;;4973506;28;20046;-72
2021/12/22 14:31:58;;;;;;;23.67;15.13;;;0.90;99.90;;;;;;4990144;28;20061;-72
2021/12/22 14:34:24;;;;;;;20.90;14.88;;;0.80;99.90;;;;;;4989551;28;20074;-72
2021/12/22 14:36:50;;;;;;;24.50;15.02;;;0.80;99.90;;;;;;4987506;28;20605;-72
2021/12/22 14:39:17;;;;;;;22.35;14.48;;;0.70;99.90;;;;;;4993499;28;20050;-72
2021/12/22 14:41:44;;;;;;;23.55;14.52;;;0.70;99.90;;;;;;4992838;28;20104;-72
2021/12/22 14:44:36;;;;;;;22.20;15.48;;;0.70;99.90;;;;;;4991426;28;20045;-72
2021/12/22 14:47:02;;;;;;;26.17;15.60;;;0.60;99.90;;;;;;4989462;28;20065;-72
2021/12/22 14:49:29;;;;;;;24.38;15.52;;;0.50;99.90;;;;;;4991640;28;20402;-72
2021/12/22 14:52:04;;;;;;;25.67;15.95;;;0.50;99.90;;;;;;4976614;28;20041;-72
2021/12/22 14:54:32;;;;;;;20.92;14.73;;;0.40;99.90;;;;;;4973704;28;20126;-72